Aeroporto :
LOGIN :

Iscrizione | Disclaimer

   EN    FR    IT 

 










Sommario :    VFR   VFR Marginale   IFR   IFR Intensivo   IFR Molto Intensivo
Visibilità : 
Base nubi : 
>= 8 km
>= 3000ft
5 / 8 km
1000 / 3000 ft
1500m / 5 km
500 / 1000 ft
800 / 1500m
200 / 500 ft
< 800m
< 200 ft
Simboli :   Temporali  Nebbia  Neve Forte  Precipitazioni Forti  Vento > 20 kt
SIGMETs :   Varie  Temporali  Ghiacco  Turbolenza  Onda orograficha  Ceneri Vulcaniche






- Altitudine del aeroporto : 322 ft


LHSN - Szolnok

ULTIMO METAR :
  • 282115Z 32004KT CAVOK 13/07 Q1019 NOSIG RMK BLU

METARs OBSOLETI :
  • 282045Z 35006KT CAVOK 14/07 Q1019 NOSIG RMK BLU
  • 282015Z 35004KT CAVOK 14/07 Q1019 NOSIG RMK BLU
  • 281945Z 36004KT CAVOK 14/08 Q1019 NOSIG RMK BLU
  • 281915Z 34008KT CAVOK 15/08 Q1019 NOSIG RMK BLU
  • 281845Z 35008KT CAVOK 16/09 Q1019 NOSIG RMK BLU

TAF TAF LHSN
Valido dal 28 a 21 ore il 29 a 06 ore UTC


282015Z 2821/2906 34006KT CAVOK
BECMG 2904/2906 01010KT



MetMap, La meteo Aeronautica in un colpo d'occhio ! - Copyright ORBIFLY Dicembre 2007 - Disclaimer

ORBIFLY MET'MAP TEAM :

Programmazione e sviluppo : Alexandra Zaïnal
Concezione : Baudouin d'Aumeries
Aiuto per la programmazione : Marc-Olivier Méhu
Supporto tecnico e logistico : Manuel Goepfert
Aiuto per la traduzione : Arnaldo La Scala

Contatto : metmap@orbifly.com




FONTI E CREDITI :

   NOAA